Time;durP1;ratioP1;P1;durP2;ratioP2;P2;SDS_P1;SDS_P2;PMS_P1;PMS_P2;Temp;Humidity;BMP_temperature;BMP_pressure;BME280_temperature;BME280_humidity;BME280_pressure;Samples;Min_cycle;Max_cycle;Signal;HPM_P1;HPM_P2
2023/01/03 00:01:38;;;;;;;8.50;4.60;;;16.90;86.00;;;;;;10534414;28;20087;-27
2023/01/03 00:06:43;;;;;;;9.82;4.53;;;16.90;85.70;;;;;;10534487;28;20133;-26
2023/01/03 00:17:07;;;;;;;10.40;4.22;;;16.90;85.00;;;;;;10510265;28;20560;-26
2023/01/03 00:22:12;;;;;;;7.88;3.78;;;16.90;84.50;;;;;;10526097;28;20076;-25
2023/01/03 00:27:15;;;;;;;5.97;3.67;;;16.90;85.00;;;;;;10536171;28;20052;-27
2023/01/03 00:32:17;;;;;;;7.03;3.78;;;16.90;84.60;;;;;;10514221;28;20194;-25
2023/01/03 00:37:20;;;;;;;7.27;3.93;;;16.90;84.60;;;;;;10518554;28;20094;-24
2023/01/03 00:42:22;;;;;;;7.78;4.00;;;16.90;84.20;;;;;;10527421;28;20547;-26
2023/01/03 00:47:24;;;;;;;6.83;3.83;;;16.90;83.90;;;;;;10520197;28;20053;-27
2023/01/03 00:52:27;;;;;;;7.20;3.87;;;16.80;84.00;;;;;;10525842;28;20044;-26
2023/01/03 00:57:29;;;;;;;6.53;3.60;;;16.80;84.10;;;;;;10525436;28;20126;-26
2023/01/03 01:02:31;;;;;;;6.10;3.80;;;16.80;83.90;;;;;;10524585;28;20043;-25
2023/01/03 01:07:34;;;;;;;6.53;3.35;;;16.90;83.70;;;;;;10526619;28;20051;-26
2023/01/03 01:12:36;;;;;;;5.30;3.00;;;16.80;83.60;;;;;;10517529;28;20079;-25
2023/01/03 01:17:39;;;;;;;6.30;3.50;;;16.70;84.20;;;;;;10530239;28;20056;-27
2023/01/03 01:22:42;;;;;;;7.78;3.83;;;16.80;83.50;;;;;;10525788;28;20509;-26
2023/01/03 01:27:44;;;;;;;4.45;2.67;;;16.70;83.70;;;;;;10518154;28;20097;-25
2023/01/03 01:32:45;;;;;;;5.77;3.07;;;16.70;83.70;;;;;;10517078;28;20122;-26
2023/01/03 01:37:48;;;;;;;5.67;3.13;;;16.70;83.70;;;;;;10504203;28;20087;-28
2023/01/03 01:48:13;;;;;;;5.03;2.60;;;16.70;83.70;;;;;;10503274;28;20445;-26
2023/01/03 01:53:19;;;;;;;6.22;2.60;;;16.70;83.40;;;;;;10525575;28;20056;-28
2023/01/03 01:58:23;;;;;;;4.47;2.95;;;16.70;83.80;;;;;;10507399;28;20437;-25
2023/01/03 02:03:25;;;;;;;4.32;2.40;;;16.60;83.50;;;;;;10523134;28;20454;-27
2023/01/03 02:08:28;;;;;;;6.20;2.63;;;16.60;83.90;;;;;;10507777;28;20052;-25
2023/01/03 02:13:38;;;;;;;4.53;2.17;;;16.60;83.50;;;;;;10514155;28;20056;-29
2023/01/03 02:18:48;;;;;;;4.07;2.83;;;16.60;83.50;;;;;;10510938;28;20056;-24
2023/01/03 02:24:27;;;;;;;4.38;2.50;;;16.60;83.70;;;;;;10505382;28;20041;-27
2023/01/03 02:30:04;;;;;;;6.82;2.45;;;16.60;83.40;;;;;;10496615;28;20151;-25
2023/01/03 02:35:15;;;;;;;4.28;1.98;;;16.60;83.10;;;;;;10507007;28;20050;-25
2023/01/03 02:40:25;;;;;;;3.53;2.30;;;16.60;83.40;;;;;;10522023;28;20086;-26
2023/01/03 02:45:38;;;;;;;3.47;1.95;;;16.50;83.00;;;;;;10521117;28;20097;-26
2023/01/03 02:50:45;;;;;;;;;;;16.60;82.70;;;;;;10516234;28;20044;-25
2023/01/03 02:55:49;;;;;;;4.18;2.20;;;16.60;82.60;;;;;;10516318;28;19924;-25
2023/01/03 03:00:55;;;;;;;2.97;1.88;;;16.60;82.30;;;;;;10510438;28;20155;-26
2023/01/03 03:06:07;;;;;;;2.95;1.83;;;16.60;82.50;;;;;;10519273;28;20072;-25
2023/01/03 03:16:49;;;;;;;3.40;1.90;;;16.50;82.60;;;;;;10507149;28;20055;-27
2023/01/03 03:32:33;;;;;;;2.85;1.80;;;16.50;82.40;;;;;;10516861;28;20064;-26
2023/01/03 03:37:38;;;;;;;3.33;2.00;;;16.50;82.20;;;;;;10528931;28;20135;-29
2023/01/03 03:48:11;;;;;;;3.60;2.03;;;16.50;82.40;;;;;;10524714;28;20056;-25
2023/01/03 03:53:18;;;;;;;2.28;1.58;;;16.40;82.60;;;;;;10524683;28;20153;-26
2023/01/03 03:58:23;;;;;;;2.65;1.45;;;16.40;82.30;;;;;;10522594;28;20131;-26
2023/01/03 04:03:26;;;;;;;2.65;1.45;;;16.40;82.40;;;;;;10535372;28;20071;-26
2023/01/03 04:08:29;;;;;;;2.65;1.55;;;16.40;82.00;;;;;;10524646;28;20047;-27
2023/01/03 04:13:31;;;;;;;2.53;1.40;;;16.40;81.70;;;;;;10526544;28;20470;-26
2023/01/03 04:18:34;;;;;;;4.50;1.67;;;16.40;81.80;;;;;;10514222;28;20051;-27
2023/01/03 04:23:37;;;;;;;2.75;1.55;;;16.40;81.40;;;;;;10532201;28;20098;-26
2023/01/03 04:28:39;;;;;;;2.72;1.40;;;16.40;81.60;;;;;;10515273;28;20085;-26
2023/01/03 04:33:40;;;;;;;2.47;1.40;;;16.30;82.20;;;;;;10508143;28;20094;-25
2023/01/03 04:38:44;;;;;;;2.70;1.43;;;16.30;82.50;;;;;;10517227;28;20080;-27
2023/01/03 04:44:04;;;;;;;3.25;1.30;;;16.30;82.30;;;;;;10511580;28;20129;-26
2023/01/03 04:49:07;;;;;;;2.25;1.38;;;16.30;82.50;;;;;;10511464;28;20081;-25
2023/01/03 04:54:11;;;;;;;3.08;1.48;;;16.30;82.20;;;;;;10528037;28;20064;-27
2023/01/03 04:59:13;;;;;;;2.90;1.50;;;16.30;82.20;;;;;;10513266;28;20803;-28
2023/01/03 05:04:15;;;;;;;2.53;1.48;;;16.30;81.90;;;;;;10528621;28;20450;-27
2023/01/03 05:09:18;;;;;;;1.73;1.10;;;16.20;82.00;;;;;;10519263;28;20099;-26
2023/01/03 05:14:20;;;;;;;2.90;1.10;;;16.20;81.80;;;;;;10521755;28;20040;-26
2023/01/03 05:19:22;;;;;;;1.70;1.40;;;16.30;81.60;;;;;;10500596;28;20083;-26
2023/01/03 05:29:49;;;;;;;3.20;1.40;;;16.20;81.50;;;;;;10510855;28;20052;-25
2023/01/03 05:34:51;;;;;;;2.22;1.42;;;16.30;81.20;;;;;;10518159;28;20951;-25
2023/01/03 05:39:54;;;;;;;3.53;1.90;;;16.30;81.50;;;;;;10514777;28;20137;-25
2023/01/03 05:44:57;;;;;;;3.17;1.40;;;16.20;81.50;;;;;;10514524;28;20125;-25
2023/01/03 05:49:59;;;;;;;2.22;1.20;;;16.20;81.50;;;;;;10520600;28;20134;-26
2023/01/03 05:55:02;;;;;;;2.00;1.25;;;16.20;81.20;;;;;;10519241;28;20040;-26
2023/01/03 06:00:05;;;;;;;1.75;1.20;;;16.20;81.30;;;;;;10523638;28;22004;-24
2023/01/03 06:05:07;;;;;;;2.53;1.20;;;16.30;81.20;;;;;;10525497;28;20166;-25
2023/01/03 06:10:11;;;;;;;;;;;16.30;80.80;;;;;;10517032;28;20075;-25
2023/01/03 06:15:12;;;;;;;;;;;16.30;80.50;;;;;;10514954;28;19967;-31
2023/01/03 06:20:14;;;;;;;3.92;1.17;;;16.30;81.00;;;;;;10506628;28;19966;-26
2023/01/03 06:25:17;;;;;;;1.73;1.20;;;16.20;81.50;;;;;;10519539;28;20076;-27
2023/01/03 06:30:20;;;;;;;2.28;1.27;;;16.30;81.40;;;;;;10513113;28;20548;-25
2023/01/03 06:35:21;;;;;;;3.25;1.05;;;16.30;81.00;;;;;;10526552;28;20040;-27
2023/01/03 06:40:24;;;;;;;2.27;1.10;;;16.20;81.80;;;;;;10506198;28;20071;-29
2023/01/03 06:56:24;;;;;;;2.55;1.15;;;16.20;81.60;;;;;;10389120;28;20053;-27
2023/01/03 07:01:26;;;;;;;3.08;1.75;;;16.30;81.50;;;;;;10485031;28;20056;-25
2023/01/03 07:15:29;;;;;;;3.55;1.60;;;16.20;81.50;;;;;;10495604;27;20119;-23
2023/01/03 07:20:31;;;;;;;4.32;1.75;;;16.20;82.80;;;;;;10477742;28;20049;-24
2023/01/03 07:25:33;;;;;;;2.27;1.50;;;16.20;83.10;;;;;;10488365;28;20044;-26
2023/01/03 07:30:40;;;;;;;3.20;2.03;;;16.20;82.50;;;;;;10483568;28;20052;-26
2023/01/03 07:35:42;;;;;;;6.45;2.40;;;16.20;82.50;;;;;;10485024;28;20102;-24
2023/01/03 07:40:44;;;;;;;6.45;2.35;;;16.30;82.00;;;;;;10486163;28;20080;-24
2023/01/03 07:45:48;;;;;;;3.78;1.80;;;16.30;82.10;;;;;;10481033;28;20444;-27
2023/01/03 07:50:49;;;;;;;6.00;1.98;;;16.30;82.00;;;;;;10470639;28;20044;-26
2023/01/03 07:55:51;;;;;;;3.23;2.00;;;16.30;82.50;;;;;;10492034;28;20537;-24
2023/01/03 08:00:54;;;;;;;4.30;2.03;;;16.20;82.60;;;;;;10481724;28;20087;-26
2023/01/03 08:06:00;;;;;;;3.03;1.77;;;16.20;83.20;;;;;;10477209;28;20454;-25
2023/01/03 08:16:23;;;;;;;2.72;2.05;;;16.00;85.40;;;;;;10479557;28;20084;-25
2023/01/03 08:21:25;;;;;;;3.38;2.30;;;15.60;88.30;;;;;;10490137;28;20048;-25
2023/01/03 08:26:27;;;;;;;10.00;4.40;;;15.80;86.30;;;;;;10452901;28;20126;-27
2023/01/03 08:31:34;;;;;;;3.97;2.20;;;15.20;89.30;;;;;;10451204;28;20087;-27
2023/01/03 08:36:45;;;;;;;5.60;2.10;;;15.50;90.80;;;;;;10455535;28;20056;-26
2023/01/03 08:41:50;;;;;;;4.68;1.80;;;16.00;85.90;;;;;;10451976;28;20072;-26
2023/01/03 08:46:56;;;;;;;5.00;2.58;;;16.00;85.10;;;;;;10450705;28;20130;-25
2023/01/03 08:51:58;;;;;;;7.30;2.78;;;16.20;83.00;;;;;;10450195;28;20091;-25
2023/01/03 08:57:00;;;;;;;2.57;1.93;;;14.80;92.70;;;;;;10450720;28;20132;-26
2023/01/03 09:02:03;;;;;;;3.03;1.95;;;15.30;91.20;;;;;;10440030;28;21149;-23
2023/01/03 09:07:05;;;;;;;8.40;3.78;;;14.70;93.70;;;;;;10442974;28;20048;-29
2023/01/03 09:12:08;;;;;;;4.63;2.63;;;15.30;89.50;;;;;;10448970;28;20061;-26
2023/01/03 09:17:11;;;;;;;3.65;2.08;;;15.10;92.10;;;;;;10454942;28;20080;-24
2023/01/03 09:22:13;;;;;;;6.05;3.63;;;15.20;91.40;;;;;;10442973;28;20496;-26
2023/01/03 09:27:14;;;;;;;9.80;5.77;;;15.60;87.40;;;;;;10454895;28;20055;-25
2023/01/03 09:32:17;;;;;;;4.95;3.20;;;15.00;86.80;;;;;;10447694;28;20049;-28
2023/01/03 09:37:19;;;;;;;5.30;3.13;;;15.30;90.10;;;;;;10449432;28;20041;-25
2023/01/03 09:47:45;;;;;;;7.30;4.00;;;15.10;91.60;;;;;;10442788;28;20053;-26
2023/01/03 10:03:44;;;;;;;10.43;5.18;;;15.00;92.00;;;;;;10420731;28;20421;-25
2023/01/03 10:08:58;;;;;;;11.75;7.53;;;15.10;91.10;;;;;;10443706;28;20106;-23
2023/01/03 10:14:11;;;;;;;7.30;3.80;;;14.90;90.60;;;;;;10449877;28;20111;-24
2023/01/03 10:19:37;;;;;;;12.57;5.20;;;14.70;92.40;;;;;;10446721;28;20071;-26
2023/01/03 10:24:44;;;;;;;3.40;2.45;;;14.60;92.50;;;;;;10415887;28;20079;-25
2023/01/03 10:29:47;;;;;;;3.50;2.58;;;14.60;94.60;;;;;;10447124;28;20049;-25
2023/01/03 10:35:02;;;;;;;6.93;3.80;;;14.10;95.40;;;;;;10446779;28;20164;-26
2023/01/03 10:40:05;;;;;;;11.23;5.07;;;13.70;98.40;;;;;;10446669;28;20041;-26
2023/01/03 10:45:14;;;;;;;20.05;9.95;;;13.30;99.80;;;;;;10447389;28;20480;-26
2023/01/03 10:50:23;;;;;;;15.55;7.13;;;11.30;99.90;;;;;;10442742;28;20051;-26
2023/01/03 10:55:26;;;;;;;13.43;5.82;;;11.90;99.90;;;;;;10448297;28;20140;-27
2023/01/03 11:00:32;;;;;;;11.88;6.00;;;11.40;99.90;;;;;;10446685;28;20084;-28
2023/01/03 11:05:36;;;;;;;16.20;6.90;;;12.00;99.90;;;;;;10445488;28;20156;-26
2023/01/03 11:10:39;;;;;;;18.73;8.63;;;11.80;99.90;;;;;;10452656;28;20071;-25
2023/01/03 11:15:42;;;;;;;7.50;4.15;;;10.80;99.90;;;;;;10443001;28;20481;-26
2023/01/03 11:20:52;;;;;;;9.98;5.05;;;12.10;99.90;;;;;;10426296;28;20073;-26
2023/01/03 11:26:07;;;;;;;9.45;5.90;;;12.20;99.90;;;;;;10435621;28;20520;-25
2023/01/03 11:31:17;;;;;;;4.95;3.08;;;13.80;97.50;;;;;;10445634;28;20045;-25
2023/01/03 11:36:37;;;;;;;5.38;2.35;;;13.30;98.60;;;;;;10445263;28;20107;-27
2023/01/03 11:41:54;;;;;;;18.25;6.78;;;13.60;99.70;;;;;;10441218;28;20091;-27
2023/01/03 11:47:09;;;;;;;17.88;7.05;;;11.40;99.90;;;;;;10449857;28;20470;-26
2023/01/03 11:52:27;;;;;;;6.43;3.97;;;11.40;99.90;;;;;;10446989;28;20230;-25
2023/01/03 11:57:37;;;;;;;9.95;4.63;;;12.10;99.90;;;;;;10443992;28;20101;-26
2023/01/03 12:03:02;;;;;;;9.70;5.85;;;11.40;99.90;;;;;;10466538;28;20045;-28
2023/01/03 12:08:27;;;;;;;9.82;5.82;;;11.40;99.90;;;;;;10448267;28;20076;-26
2023/01/03 12:13:34;;;;;;;8.73;6.32;;;10.70;99.90;;;;;;10455961;28;20057;-27
2023/01/03 12:18:44;;;;;;;10.27;4.95;;;11.30;99.90;;;;;;10452484;28;20076;-25
2023/01/03 12:23:55;;;;;;;13.80;6.07;;;11.40;99.90;;;;;;10457381;28;20045;-24
2023/01/03 12:29:03;;;;;;;7.93;3.58;;;11.80;99.90;;;;;;10443239;28;20515;-25
2023/01/03 12:34:17;;;;;;;4.93;2.50;;;13.00;99.90;;;;;;10451650;28;20049;-25
2023/01/03 12:39:36;;;;;;;4.18;2.78;;;13.60;98.50;;;;;;10453342;28;20080;-26
2023/01/03 12:44:40;;;;;;;6.47;3.60;;;13.10;99.90;;;;;;10442471;28;20073;-26
2023/01/03 12:49:47;;;;;;;4.85;2.90;;;12.20;99.90;;;;;;10444178;28;20060;-25
2023/01/03 12:54:55;;;;;;;6.10;4.32;;;14.10;97.30;;;;;;10445805;28;20044;-26
2023/01/03 13:00:10;;;;;;;2.45;1.90;;;12.90;99.90;;;;;;10446402;28;20444;-25
2023/01/03 13:05:18;;;;;;;7.10;3.50;;;13.30;99.90;;;;;;10446021;28;20045;-28
2023/01/03 13:10:32;;;;;;;9.50;2.97;;;12.10;99.90;;;;;;10446977;28;20509;-27
2023/01/03 13:15:35;;;;;;;5.57;2.10;;;12.90;99.90;;;;;;10448387;28;20156;-25
2023/01/03 13:20:38;;;;;;;3.40;1.77;;;13.70;99.40;;;;;;10448793;28;20095;-26
2023/01/03 13:25:43;;;;;;;3.67;1.70;;;14.70;94.80;;;;;;10448563;28;20040;-26
2023/01/03 13:30:45;;;;;;;1.95;1.35;;;14.80;94.30;;;;;;10453681;28;20048;-25
2023/01/03 13:35:59;;;;;;;2.33;1.25;;;15.00;92.80;;;;;;10446707;28;20079;-25
2023/01/03 13:41:08;;;;;;;6.13;1.63;;;14.50;94.10;;;;;;10448589;28;20069;-25
2023/01/03 13:46:21;;;;;;;2.67;1.25;;;14.30;96.80;;;;;;10448690;28;20495;-25
2023/01/03 13:51:37;;;;;;;;;;;14.50;93.40;;;;;;10451939;28;20068;-26
2023/01/03 13:57:01;;;;;;;3.30;1.40;;;15.00;93.50;;;;;;10446283;28;19968;-24
2023/01/03 14:02:54;;;;;;;6.10;2.58;;;13.80;95.40;;;;;;10444333;28;20049;-28
2023/01/03 14:08:19;;;;;;;3.47;1.40;;;13.90;97.20;;;;;;10416497;28;20130;-26
2023/01/03 14:13:38;;;;;;;2.53;1.55;;;14.90;89.20;;;;;;10442392;28;20106;-26
2023/01/03 14:18:45;;;;;;;2.55;1.13;;;15.60;90.70;;;;;;10444347;28;20048;-27
2023/01/03 14:23:48;;;;;;;8.20;2.17;;;15.20;93.20;;;;;;10437540;28;20571;-26
2023/01/03 14:28:54;;;;;;;6.10;1.17;;;14.60;90.20;;;;;;10446337;28;20152;-25
2023/01/03 14:33:59;;;;;;;2.80;1.30;;;15.30;93.10;;;;;;10443447;28;20049;-24
2023/01/03 14:39:01;;;;;;;8.25;2.20;;;15.60;91.50;;;;;;10434129;28;20045;-26
2023/01/03 14:44:06;;;;;;;;;;;15.80;90.80;;;;;;10437938;28;20052;-28
2023/01/03 14:49:20;;;;;;;3.63;1.23;;;15.20;93.40;;;;;;10438665;28;19924;-26
2023/01/03 14:54:29;;;;;;;6.53;2.15;;;15.40;92.90;;;;;;10452889;28;20151;-26
2023/01/03 14:59:34;;;;;;;6.93;1.15;;;15.70;91.20;;;;;;10442034;28;20073;-26
2023/01/03 15:04:42;;;;;;;3.35;1.30;;;16.10;88.60;;;;;;10450251;28;20105;-26
2023/01/03 15:09:44;;;;;;;3.88;1.08;;;16.50;86.40;;;;;;10445928;28;20142;-28
2023/01/03 15:14:49;;;;;;;5.10;1.20;;;16.40;88.70;;;;;;10445125;28;20055;-26
2023/01/03 15:19:54;;;;;;;6.40;1.60;;;16.60;87.00;;;;;;10460728;28;20048;-26
2023/01/03 15:25:03;;;;;;;6.45;1.05;;;16.40;87.40;;;;;;10451405;28;20063;-30
2023/01/03 15:30:23;;;;;;;5.25;1.52;;;16.50;89.80;;;;;;10439786;28;20094;-27
2023/01/03 15:35:35;;;;;;;3.38;0.90;;;16.60;88.50;;;;;;10450466;28;20057;-28
2023/01/03 15:40:39;;;;;;;3.00;1.07;;;16.40;90.40;;;;;;10454764;28;20082;-28
2023/01/03 15:45:42;;;;;;;7.18;1.70;;;16.00;92.90;;;;;;10438395;28;20048;-27
2023/01/03 15:50:47;;;;;;;4.80;1.25;;;15.90;92.70;;;;;;10450677;28;20478;-25
2023/01/03 15:55:51;;;;;;;4.85;1.35;;;16.10;90.30;;;;;;10461288;28;20569;-27
2023/01/03 16:00:55;;;;;;;5.70;1.13;;;16.30;91.40;;;;;;10448922;28;20130;-26
2023/01/03 16:05:56;;;;;;;14.02;2.92;;;16.00;92.50;;;;;;10452184;28;20642;-26
2023/01/03 16:11:00;;;;;;;7.73;1.83;;;14.80;83.50;;;;;;10458041;28;20098;-25
2023/01/03 16:16:05;;;;;;;4.43;2.05;;;15.60;94.60;;;;;;10461789;28;20135;-25
2023/01/03 16:21:07;;;;;;;2.15;1.00;;;15.90;90.40;;;;;;10455211;28;20406;-30
2023/01/03 16:26:09;;;;;;;5.47;1.83;;;15.90;94.40;;;;;;10440888;28;20049;-25
2023/01/03 16:31:17;;;;;;;10.90;1.90;;;16.30;92.60;;;;;;10446106;28;20044;-27
2023/01/03 16:36:26;;;;;;;13.27;1.77;;;16.10;90.80;;;;;;10456616;28;20059;-25
2023/01/03 16:41:28;;;;;;;4.18;1.48;;;16.00;92.90;;;;;;10448206;28;20051;-27
2023/01/03 16:46:34;;;;;;;3.57;1.43;;;15.90;90.40;;;;;;10453297;28;20677;-25
2023/01/03 16:51:36;;;;;;;4.75;1.38;;;16.70;90.80;;;;;;10449095;28;20071;-26
2023/01/03 16:56:38;;;;;;;5.82;2.28;;;16.10;84.40;;;;;;10452206;28;20056;-26
2023/01/03 17:01:41;;;;;;;2.53;1.07;;;15.20;95.70;;;;;;10448736;28;20044;-26
2023/01/03 17:06:44;;;;;;;4.22;1.38;;;16.60;92.10;;;;;;10442780;28;20403;-26
2023/01/03 17:11:48;;;;;;;6.78;1.48;;;16.40;93.20;;;;;;10447931;28;20484;-25
2023/01/03 17:16:51;;;;;;;5.22;1.75;;;16.10;90.00;;;;;;10453470;28;20147;-26
2023/01/03 17:21:53;;;;;;;4.32;1.52;;;15.80;93.90;;;;;;10447864;28;20162;-27
2023/01/03 17:27:02;;;;;;;4.63;1.33;;;16.20;94.10;;;;;;10466780;28;20165;-29
2023/01/03 17:32:15;;;;;;;6.18;1.00;;;15.90;94.40;;;;;;10448964;28;20147;-25
2023/01/03 17:37:19;;;;;;;3.63;1.23;;;16.70;91.60;;;;;;10435977;28;20084;-26
2023/01/03 17:42:22;;;;;;;4.30;1.13;;;16.60;91.60;;;;;;10455760;28;20041;-26
2023/01/03 17:52:45;;;;;;;8.98;1.35;;;16.70;91.20;;;;;;10448148;28;20402;-27
2023/01/03 17:57:47;;;;;;;7.80;2.00;;;16.60;92.30;;;;;;10447091;28;20079;-26
2023/01/03 18:02:52;;;;;;;10.55;1.95;;;16.00;94.20;;;;;;10455133;28;20144;-25
2023/01/03 18:07:55;;;;;;;9.23;2.15;;;15.30;87.10;;;;;;10445150;28;20049;-27
2023/01/03 18:12:57;;;;;;;7.15;3.00;;;15.40;96.10;;;;;;10447478;28;20088;-26
2023/01/03 18:18:01;;;;;;;9.17;3.33;;;15.30;93.80;;;;;;10447918;28;20078;-26
2023/01/03 18:23:02;;;;;;;5.15;2.05;;;15.10;95.80;;;;;;10449835;28;20533;-25
2023/01/03 18:28:04;;;;;;;8.43;2.70;;;15.70;94.90;;;;;;10445161;28;20087;-25
2023/01/03 18:33:08;;;;;;;5.27;2.53;;;14.40;99.90;;;;;;10446722;28;20049;-25
2023/01/03 18:38:23;;;;;;;4.30;2.30;;;15.10;97.00;;;;;;10432285;28;20072;-28
2023/01/03 18:43:25;;;;;;;7.70;2.50;;;15.00;97.90;;;;;;10432414;28;20099;-26
2023/01/03 18:48:28;;;;;;;7.90;2.77;;;15.60;94.30;;;;;;10436003;28;20126;-26
2023/01/03 18:53:32;;;;;;;5.25;2.17;;;15.30;95.40;;;;;;10445193;28;20136;-27
2023/01/03 18:58:36;;;;;;;10.15;2.33;;;13.50;98.50;;;;;;10447412;28;20068;-25
2023/01/03 19:03:42;;;;;;;10.55;2.55;;;13.70;98.70;;;;;;10456224;28;20095;-27
2023/01/03 19:08:44;;;;;;;5.75;2.47;;;14.90;96.70;;;;;;10444791;28;20056;-25
2023/01/03 19:13:50;;;;;;;6.90;2.43;;;14.90;98.00;;;;;;10450011;28;20087;-25
2023/01/03 19:18:53;;;;;;;7.78;2.47;;;14.70;97.70;;;;;;10450255;28;20045;-25
2023/01/03 19:24:00;;;;;;;7.05;3.25;;;14.40;94.40;;;;;;10459081;28;20059;-26
2023/01/03 19:29:06;;;;;;;6.13;2.45;;;14.30;99.10;;;;;;10444043;28;20114;-29
2023/01/03 19:34:16;;;;;;;10.20;2.65;;;14.30;97.80;;;;;;10442163;28;20053;-25
2023/01/03 19:39:19;;;;;;;9.95;3.20;;;14.40;98.70;;;;;;10433061;28;20126;-25
2023/01/03 19:44:21;;;;;;;;;;;13.90;95.30;;;;;;10441337;28;20047;-24
2023/01/03 19:49:24;;;;;;;8.98;2.78;;;14.00;99.60;;;;;;10437027;28;19931;-25
2023/01/03 19:54:26;;;;;;;5.07;2.08;;;13.30;99.90;;;;;;10457032;28;20144;-25
2023/01/03 19:59:30;;;;;;;8.15;2.05;;;14.90;97.20;;;;;;10437626;28;20477;-27
2023/01/03 20:04:33;;;;;;;3.90;1.65;;;14.30;96.00;;;;;;10443255;28;20072;-27
2023/01/03 20:09:35;;;;;;;6.95;1.85;;;14.70;98.00;;;;;;10442505;28;20049;-27
2023/01/03 20:14:40;;;;;;;7.13;2.17;;;15.00;98.90;;;;;;10444067;28;20143;-25
2023/01/03 20:19:43;;;;;;;8.02;2.45;;;14.30;96.90;;;;;;10445036;28;20545;-27
2023/01/03 20:24:46;;;;;;;6.63;1.48;;;15.20;97.60;;;;;;10449912;28;20138;-25
2023/01/03 20:29:47;;;;;;;;;;;14.40;99.90;;;;;;10447907;28;20044;-26
2023/01/03 20:34:50;;;;;;;7.03;2.20;;;14.20;98.90;;;;;;10448807;28;19924;-26
2023/01/03 20:39:52;;;;;;;11.02;1.80;;;14.30;99.90;;;;;;10449484;28;20102;-27
2023/01/03 20:44:55;;;;;;;6.38;1.75;;;14.00;97.80;;;;;;10450775;28;20057;-27
2023/01/03 20:49:58;;;;;;;6.43;1.92;;;14.90;99.40;;;;;;10446293;28;20049;-26
2023/01/03 20:55:00;;;;;;;3.78;1.50;;;15.00;98.60;;;;;;10441164;28;20045;-25
2023/01/03 21:00:02;;;;;;;6.70;2.30;;;15.10;99.50;;;;;;10450219;28;20068;-25
2023/01/03 21:05:06;;;;;;;5.97;1.63;;;14.90;96.10;;;;;;10442823;28;20052;-26
2023/01/03 21:10:16;;;;;;;8.57;1.80;;;15.50;95.30;;;;;;10443351;28;20107;-28
2023/01/03 21:15:18;;;;;;;5.50;1.85;;;15.10;99.20;;;;;;10456895;28;20111;-27
2023/01/03 21:20:23;;;;;;;9.63;1.90;;;15.40;96.30;;;;;;10454018;28;20120;-26
2023/01/03 21:25:27;;;;;;;8.18;1.70;;;15.10;95.00;;;;;;10446096;28;20135;-28
2023/01/03 21:30:31;;;;;;;3.38;1.55;;;14.30;95.00;;;;;;10439489;28;20129;-26
2023/01/03 21:35:35;;;;;;;8.13;3.13;;;14.70;95.30;;;;;;10443946;28;20122;-25
2023/01/03 21:40:37;;;;;;;6.30;1.58;;;13.60;98.30;;;;;;10456410;28;20060;-26
2023/01/03 21:45:43;;;;;;;6.88;2.00;;;13.80;99.90;;;;;;10460924;28;20053;-25
2023/01/03 21:50:48;;;;;;;4.88;1.70;;;13.80;97.60;;;;;;10450428;28;20044;-25
2023/01/03 21:55:50;;;;;;;7.30;1.50;;;14.60;99.90;;;;;;10461406;28;20395;-26
2023/01/03 22:00:52;;;;;;;8.67;2.13;;;14.80;98.30;;;;;;10447638;28;20127;-26
2023/01/03 22:06:05;;;;;;;3.67;1.95;;;14.30;99.90;;;;;;10448915;28;20126;-26
2023/01/03 22:11:07;;;;;;;9.02;2.00;;;13.10;99.90;;;;;;10450660;28;20048;-26
2023/01/03 22:16:10;;;;;;;11.53;2.03;;;13.10;99.90;;;;;;10445559;28;20076;-25
2023/01/03 22:21:13;;;;;;;6.88;2.08;;;13.70;99.90;;;;;;10454234;28;20099;-25
2023/01/03 22:26:16;;;;;;;6.65;2.35;;;13.30;99.90;;;;;;10448028;28;20045;-26
2023/01/03 22:31:21;;;;;;;4.60;2.10;;;13.70;99.90;;;;;;10436269;28;20053;-26
2023/01/03 22:36:24;;;;;;;6.60;2.22;;;13.40;99.90;;;;;;10448819;28;20048;-26
2023/01/03 22:41:26;;;;;;;6.32;1.95;;;13.20;99.90;;;;;;10443406;28;20115;-25
2023/01/03 22:46:28;;;;;;;10.10;2.03;;;13.70;99.90;;;;;;10427327;28;20525;-25
2023/01/03 22:51:31;;;;;;;9.18;2.63;;;14.50;99.90;;;;;;10447064;28;20063;-26
2023/01/03 22:56:33;;;;;;;4.82;1.83;;;13.20;99.90;;;;;;10450916;28;20049;-26
2023/01/03 23:01:36;;;;;;;5.63;2.03;;;13.80;99.90;;;;;;10444137;28;20065;-26
2023/01/03 23:06:39;;;;;;;;;;;12.70;99.90;;;;;;10451409;28;20723;-25
2023/01/03 23:17:54;;;;;;;4.30;1.80;;;12.70;99.90;;;;;;10446043;28;20083;-25
2023/01/03 23:22:26;;;;;;;6.50;2.33;;;13.90;99.90;;;;;;10436163;28;20037;-25
2023/01/03 23:27:28;;;;;;;4.25;1.50;;;12.80;99.90;;;;;;10445547;28;20670;-27
2023/01/03 23:32:32;;;;;;;5.40;1.88;;;14.10;99.90;;;;;;10440241;28;20073;-29
2023/01/03 23:37:35;;;;;;;4.93;1.60;;;14.80;99.70;;;;;;10443502;28;20136;-28
2023/01/03 23:42:37;;;;;;;4.82;1.65;;;13.70;99.90;;;;;;10446498;28;20131;-26
2023/01/03 23:47:39;;;;;;;4.60;1.80;;;14.10;99.90;;;;;;10442437;28;20477;-30
2023/01/03 23:52:42;;;;;;;3.40;1.50;;;12.90;99.90;;;;;;10452763;28;20041;-26
2023/01/03 23:57:44;;;;;;;6.28;1.92;;;13.60;99.90;;;;;;10461209;28;20052;-27
